createdAt,value
2022-10-19T03:56:46.702Z,17.60
2022-10-19T04:00:12.726Z,16.20
2022-10-19T04:07:04.467Z,18.10
2022-10-19T04:10:28.498Z,14.80
2022-10-19T04:13:52.751Z,13.60
2022-10-19T04:17:16.044Z,14.90
2022-10-19T04:20:42.150Z,17.70
2022-10-19T04:24:07.865Z,13.50
2022-10-19T04:27:31.393Z,14.40
2022-10-19T04:30:56.503Z,16.20
2022-10-19T04:34:20.524Z,22.00
2022-10-19T04:37:43.821Z,17.90
2022-10-19T04:41:09.654Z,14.30
2022-10-19T04:44:32.856Z,17.80
2022-10-19T04:47:56.143Z,15.50
2022-10-19T04:51:19.896Z,37.20
2022-10-19T04:54:42.885Z,24.50
2022-10-19T04:58:05.959Z,17.60
2022-10-19T05:01:30.749Z,15.80
2022-10-19T05:04:54.346Z,12.90
2022-10-19T05:08:17.416Z,17.40
2022-10-19T05:11:40.544Z,15.40
2022-10-19T05:15:04.885Z,11.70
2022-10-19T05:18:28.953Z,9.10
2022-10-19T05:21:52.047Z,14.10
2022-10-19T05:25:15.391Z,22.50
2022-10-19T05:28:39.166Z,12.50
2022-10-19T05:32:02.217Z,12.00
2022-10-19T05:35:26.069Z,14.40
2022-10-19T05:38:51.035Z,14.10
2022-10-19T05:42:14.143Z,16.80
2022-10-19T05:45:37.722Z,11.40
2022-10-19T05:49:01.562Z,11.80
2022-10-19T05:52:24.832Z,12.90
2022-10-19T05:55:47.976Z,12.00
2022-10-19T05:59:15.222Z,13.40
2022-10-19T06:02:38.522Z,13.00
2022-10-19T06:06:03.358Z,8.90
2022-10-19T06:09:27.159Z,12.80
2022-10-19T06:12:50.358Z,12.70
2022-10-19T06:16:15.658Z,16.30
2022-10-19T06:19:39.161Z,12.00
2022-10-19T06:23:02.470Z,11.00
2022-10-19T06:26:26.564Z,10.70
2022-10-19T06:29:49.643Z,13.90
2022-10-19T06:33:12.857Z,10.10
2022-10-19T06:36:36.507Z,12.10
2022-10-19T06:40:03.597Z,7.60
2022-10-19T06:43:30.145Z,8.00
2022-10-19T06:46:53.568Z,8.50
2022-10-19T06:50:17.132Z,6.50
2022-10-19T06:53:40.670Z,11.70
2022-10-19T06:57:03.869Z,7.40
2022-10-19T07:00:26.983Z,9.30
2022-10-19T07:03:52.022Z,9.70
2022-10-19T07:07:15.112Z,8.10
2022-10-19T07:10:38.415Z,8.10
2022-10-19T07:14:01.482Z,7.90
2022-10-19T07:17:24.674Z,6.30
2022-10-19T07:20:55.494Z,8.10
2022-10-19T07:24:19.224Z,6.90
2022-10-19T07:27:42.584Z,7.20
2022-10-19T07:31:08.356Z,5.60
2022-10-19T07:34:31.536Z,9.10
2022-10-19T07:37:54.626Z,5.70
2022-10-19T07:41:19.856Z,6.40
2022-10-19T07:44:43.128Z,9.80
2022-10-19T07:48:06.861Z,6.80
2022-10-19T07:51:30.163Z,6.60
2022-10-19T07:54:54.730Z,7.60
2022-10-19T07:58:17.753Z,8.70
2022-10-19T08:01:41.625Z,6.70
2022-10-19T08:05:07.996Z,9.80
2022-10-19T08:11:57.598Z,9.10
2022-10-19T08:15:20.797Z,9.70
2022-10-19T08:18:43.881Z,11.80
2022-10-19T08:22:07.219Z,5.70
2022-10-19T08:25:30.502Z,8.30
2022-10-19T08:28:58.189Z,7.00
2022-10-19T08:32:21.532Z,6.00
2022-10-19T08:35:44.886Z,5.90
2022-10-19T08:39:11.832Z,4.60
2022-10-19T08:42:47.142Z,5.10
2022-10-19T08:46:19.428Z,4.50
2022-10-19T08:49:42.835Z,6.60
2022-10-19T08:53:11.571Z,5.00
2022-10-19T08:56:50.561Z,4.70
2022-10-19T09:00:23.860Z,7.90
2022-10-19T09:03:55.309Z,5.40
2022-10-19T09:07:26.090Z,5.00
2022-10-19T09:14:22.067Z,5.40
2022-10-19T09:17:45.167Z,4.50
2022-10-19T09:21:14.824Z,3.70
2022-10-19T09:28:19.768Z,7.30
2022-10-19T09:31:42.908Z,9.20
2022-10-19T09:35:17.397Z,4.60
2022-10-19T09:38:40.539Z,5.30
2022-10-19T09:42:20.614Z,6.10
2022-10-19T09:45:49.462Z,8.40
2022-10-19T09:49:12.643Z,5.00
2022-10-19T09:52:38.108Z,8.90
2022-10-19T09:56:05.974Z,8.00
2022-10-19T09:59:33.435Z,3.80
2022-10-19T10:02:56.724Z,5.30
2022-10-19T10:06:21.977Z,4.70
2022-10-19T10:09:45.457Z,5.90
2022-10-19T10:13:16.369Z,3.80
2022-10-19T10:16:39.623Z,3.10
2022-10-19T10:20:17.623Z,6.00
2022-10-19T10:23:41.183Z,5.30
2022-10-19T10:27:06.109Z,7.90
2022-10-19T10:30:35.378Z,14.50
2022-10-19T10:34:10.716Z,7.60
2022-10-19T10:37:46.371Z,10.60
2022-10-19T10:41:15.579Z,10.70
2022-10-19T10:44:45.111Z,6.00
2022-10-19T10:48:20.173Z,5.10
2022-10-19T10:51:50.649Z,6.40
2022-10-19T10:55:18.370Z,5.00
2022-10-19T10:58:48.202Z,3.80
2022-10-19T11:02:19.406Z,3.00
2022-10-19T11:05:45.574Z,3.20
2022-10-19T11:09:17.036Z,3.30
2022-10-19T11:12:44.928Z,1.70
2022-10-19T11:16:14.612Z,2.00
2022-10-19T11:19:41.415Z,2.00
2022-10-19T11:23:13.466Z,2.10
2022-10-19T11:26:48.613Z,3.20
2022-10-19T11:30:14.683Z,3.60
2022-10-19T11:33:53.371Z,4.30
2022-10-19T11:37:24.789Z,5.40
2022-10-19T11:41:17.855Z,8.60
2022-10-19T11:44:57.145Z,10.10
2022-10-19T11:48:37.666Z,6.20
2022-10-19T11:52:07.282Z,8.20
2022-10-19T11:55:40.938Z,6.70
2022-10-19T11:59:14.915Z,4.00
2022-10-19T12:03:06.373Z,3.40
2022-10-19T12:06:35.919Z,14.10
2022-10-19T12:13:33.949Z,1.80
2022-10-19T12:17:01.869Z,2.70
2022-10-19T12:20:32.301Z,1.90
2022-10-19T12:23:58.543Z,1.70
2022-10-19T12:27:29.446Z,2.10
2022-10-19T12:30:53.373Z,12.40
2022-10-19T12:34:27.271Z,5.00
2022-10-19T12:37:57.571Z,2.70
2022-10-19T12:41:29.051Z,4.50
2022-10-19T12:45:14.332Z,7.80
2022-10-19T12:48:38.620Z,5.10
2022-10-19T12:52:02.966Z,3.70
2022-10-19T12:55:33.947Z,2.60
2022-10-19T12:59:00.682Z,1.40
2022-10-19T13:02:28.115Z,2.90
2022-10-19T13:05:57.366Z,5.30
2022-10-19T13:09:26.117Z,1.90
2022-10-19T13:12:50.374Z,3.20
2022-10-19T13:16:48.226Z,1.10
2022-10-19T13:20:48.056Z,1.10
2022-10-19T13:24:30.439Z,1.90
2022-10-19T13:27:55.183Z,1.40
2022-10-19T13:31:27.663Z,2.10
2022-10-19T13:34:50.774Z,1.90
2022-10-19T13:38:31.514Z,3.30
2022-10-19T13:41:56.430Z,3.60
2022-10-19T13:45:23.559Z,2.00
2022-10-19T13:49:17.144Z,2.40
2022-10-19T13:53:27.282Z,3.20
2022-10-19T13:57:05.778Z,3.10
2022-10-19T14:00:34.657Z,5.20
2022-10-19T14:04:17.202Z,2.90
2022-10-19T14:07:49.037Z,4.10
2022-10-19T14:11:16.692Z,6.00
2022-10-19T14:18:24.156Z,2.90
2022-10-19T14:21:47.552Z,3.20
2022-10-19T14:25:19.886Z,9.80
2022-10-19T14:28:43.180Z,5.60
2022-10-19T14:32:08.353Z,2.10
2022-10-19T14:35:33.864Z,2.30
2022-10-19T14:38:57.294Z,2.50
2022-10-19T14:42:20.355Z,2.40
2022-10-19T14:45:43.492Z,2.90
2022-10-19T14:49:09.926Z,4.00
2022-10-19T14:52:37.934Z,3.80
2022-10-19T14:56:05.821Z,3.60
2022-10-19T14:59:31.865Z,1.80
2022-10-19T15:03:00.292Z,2.60
2022-10-19T15:06:28.009Z,3.20
2022-10-19T15:09:54.659Z,2.60
2022-10-19T15:13:24.913Z,7.30
2022-10-19T15:16:52.205Z,10.50
2022-10-19T15:20:25.011Z,5.50
2022-10-19T15:23:49.143Z,6.20
2022-10-19T15:27:20.825Z,3.30
2022-10-19T15:30:43.890Z,3.10
2022-10-19T15:34:21.666Z,3.20
2022-10-19T15:37:47.888Z,3.40
2022-10-19T15:41:19.015Z,3.40
2022-10-19T15:44:43.758Z,5.70
2022-10-19T15:48:26.135Z,5.00
2022-10-19T15:51:50.256Z,6.00
2022-10-19T15:55:16.612Z,8.90
2022-10-19T15:58:39.646Z,9.60
2022-10-19T16:02:12.329Z,9.30
2022-10-19T16:05:36.560Z,7.90
2022-10-19T16:09:01.086Z,11.90
2022-10-19T16:12:26.506Z,98.40
2022-10-19T16:15:56.783Z,46.80
2022-10-19T16:19:33.411Z,17.00
2022-10-19T16:22:57.394Z,26.80
2022-10-19T16:26:21.780Z,32.00
2022-10-19T16:29:45.287Z,51.30
2022-10-19T16:33:08.621Z,65.30
2022-10-19T16:36:31.765Z,75.80
2022-10-19T16:39:55.018Z,32.90
2022-10-19T16:43:17.984Z,32.50
2022-10-19T16:46:41.421Z,23.50
2022-10-19T16:50:06.748Z,25.70
2022-10-19T16:53:29.983Z,18.00
2022-10-19T16:56:54.831Z,23.50
2022-10-19T17:00:18.060Z,23.10
2022-10-19T17:03:41.119Z,22.40
2022-10-19T17:07:04.720Z,23.40
2022-10-19T17:10:28.105Z,26.30
2022-10-19T17:13:53.680Z,32.50
2022-10-19T17:17:17.048Z,28.40
2022-10-19T17:20:40.182Z,41.40
2022-10-19T17:24:05.437Z,78.50
2022-10-19T17:27:28.639Z,35.30
2022-10-19T17:30:52.123Z,57.70
2022-10-19T17:34:15.266Z,66.10
2022-10-19T17:37:39.011Z,61.00
2022-10-19T17:41:04.287Z,62.90
2022-10-19T17:44:28.143Z,80.20
2022-10-19T17:47:51.252Z,49.10
2022-10-19T17:51:17.232Z,41.60
2022-10-19T17:54:48.858Z,62.60
2022-10-19T17:58:23.487Z,81.70
2022-10-19T18:01:46.730Z,67.70
2022-10-19T18:05:10.686Z,66.20
2022-10-19T18:08:36.878Z,50.00
2022-10-19T18:12:03.469Z,72.70
2022-10-19T18:15:29.471Z,61.30
2022-10-19T18:18:56.264Z,73.80
2022-10-19T18:22:21.136Z,61.30
2022-10-19T18:25:53.818Z,51.80
2022-10-19T18:29:20.764Z,47.50
2022-10-19T18:32:43.836Z,62.10
2022-10-19T18:36:09.792Z,58.40
2022-10-19T18:39:32.968Z,77.20
2022-10-19T18:42:56.588Z,108.30
2022-10-19T18:46:20.759Z,92.00
2022-10-19T18:49:43.804Z,75.80
2022-10-19T18:53:06.867Z,75.80
2022-10-19T18:56:32.618Z,92.20
2022-10-19T18:59:55.792Z,85.20
2022-10-19T19:03:19.893Z,85.80
2022-10-19T19:06:42.952Z,80.00
2022-10-19T19:10:07.613Z,45.40
2022-10-19T19:13:30.962Z,52.50
2022-10-19T19:16:54.240Z,45.90
2022-10-19T19:20:17.622Z,48.40
2022-10-19T19:23:40.729Z,48.30
2022-10-19T19:27:04.247Z,40.60
2022-10-19T19:30:27.612Z,61.40
2022-10-19T19:33:51.536Z,116.70
2022-10-19T19:37:15.212Z,49.40
2022-10-19T19:40:40.730Z,31.30
2022-10-19T19:44:04.238Z,29.30
2022-10-19T19:47:27.379Z,29.70
2022-10-19T19:50:50.711Z,37.10
2022-10-19T19:54:13.936Z,33.60
2022-10-19T19:57:37.386Z,31.70
2022-10-19T20:01:12.121Z,32.20
2022-10-19T20:04:36.514Z,31.20
2022-10-19T20:08:00.723Z,40.20
2022-10-19T20:11:25.433Z,45.60
2022-10-19T20:14:48.545Z,44.30
2022-10-19T20:18:11.566Z,33.50
2022-10-19T20:21:34.583Z,39.10
2022-10-19T20:24:57.626Z,53.20
2022-10-19T20:28:21.348Z,51.60
2022-10-19T20:31:44.669Z,57.20
2022-10-19T20:35:08.798Z,58.80
2022-10-19T20:38:32.089Z,56.60
2022-10-19T20:41:55.221Z,54.60
2022-10-19T20:45:18.381Z,59.70
2022-10-19T20:48:41.571Z,70.40
2022-10-19T20:52:04.860Z,64.90
2022-10-19T20:55:27.965Z,59.50
2022-10-19T20:58:55.685Z,66.80
2022-10-19T21:02:18.815Z,60.80
2022-10-19T21:05:41.839Z,61.00
2022-10-19T21:09:05.270Z,59.30
2022-10-19T21:12:28.360Z,55.80
2022-10-19T21:15:51.458Z,52.60
2022-10-19T21:19:17.167Z,55.00
2022-10-19T21:22:41.087Z,53.40
2022-10-19T21:26:04.468Z,58.80
2022-10-19T21:29:27.680Z,48.80
2022-10-19T21:32:50.786Z,41.70
2022-10-19T21:36:15.110Z,44.60
2022-10-19T21:39:38.923Z,44.90
2022-10-19T21:43:02.388Z,48.00
2022-10-19T21:46:26.233Z,46.70
2022-10-19T21:49:49.279Z,47.10
2022-10-19T21:53:12.290Z,53.90
2022-10-19T21:56:36.436Z,59.90
2022-10-19T21:59:59.796Z,65.10
2022-10-19T22:03:22.822Z,60.90
2022-10-19T22:06:46.763Z,55.30
2022-10-19T22:10:10.418Z,55.50
2022-10-19T22:13:34.227Z,51.40
2022-10-19T22:16:57.338Z,43.90
2022-10-19T22:20:20.645Z,43.20
2022-10-19T22:23:44.580Z,41.40
2022-10-19T22:27:07.988Z,42.70
2022-10-19T22:30:31.267Z,36.60
2022-10-19T22:33:54.399Z,37.60
2022-10-19T22:37:17.623Z,33.80
2022-10-19T22:40:40.665Z,36.10
2022-10-19T22:44:04.124Z,42.30
2022-10-19T22:47:27.442Z,40.30
